Rankin, Pennsylvania
Current Conditions -  °F | °C
As of 2:53 PM on Thursday 30 Oct 2014 (Local Time) from KAGC Reporting Station
Overcast Overcast  
Wind Chill: 47°   Ceiling: 4500
Heat Index: 49°   Visibility: 9mi
Dew Point: 33°   Wind: 6mph
Humidity: 54%   Direction: 250°WSW
Pressure: 30.05"   Gusts: NA
Location:  40.4039°N, 79.8613°W
Report Text: KAGC 301853Z 25005KT 9SM OVC045 09/01 A3005 RMK AO2 SLP187 T00940006
Loading
Personal Weather Stations






























Interactive Weather Map
Tropical Storm Tracking
New forecast layout! Learn more

10-Day Weather Forecast

Advertisements
Track Severe Weather on mobile